sensor_id;sensor_type;location;lat;lon;timestamp;pressure;altitude;pressure_sealevel;temperature;humidity
80382;BME280;69692;55.820;37.490;2023-08-06T00:00:52;100023.63;;;22.14;73.85
80382;BME280;69692;55.820;37.490;2023-08-06T00:03:18;100029.94;;;22.15;73.65
80382;BME280;69692;55.820;37.490;2023-08-06T00:05:43;100026.69;;;22.13;74.22
80382;BME280;69692;55.820;37.490;2023-08-06T00:08:09;100025.06;;;22.12;73.00
80382;BME280;69692;55.820;37.490;2023-08-06T00:10:35;100022.91;;;22.09;73.94
80382;BME280;69692;55.820;37.490;2023-08-06T00:13:01;100029.22;;;22.09;72.87
80382;BME280;69692;55.820;37.490;2023-08-06T00:15:27;100022.91;;;22.09;72.69
80382;BME280;69692;55.820;37.490;2023-08-06T00:17:52;100026.16;;;22.11;72.54
80382;BME280;69692;55.820;37.490;2023-08-06T00:20:18;100028.41;;;22.09;72.69
80382;BME280;69692;55.820;37.490;2023-08-06T00:22:44;100035.00;;;22.08;73.00
80382;BME280;69692;55.820;37.490;2023-08-06T00:25:10;100031.13;;;22.09;72.50
80382;BME280;69692;55.820;37.490;2023-08-06T00:27:36;100035.56;;;22.05;73.05
80382;BME280;69692;55.820;37.490;2023-08-06T00:30:01;100037.50;;;22.04;73.44
80382;BME280;69692;55.820;37.490;2023-08-06T00:32:32;100030.38;;;22.03;74.38
80382;BME280;69692;55.820;37.490;2023-08-06T00:34:58;100025.72;;;22.03;74.23
80382;BME280;69692;55.820;37.490;2023-08-06T00:37:24;100032.88;;;21.99;74.32
80382;BME280;69692;55.820;37.490;2023-08-06T00:39:50;100045.47;;;22.00;73.86
80382;BME280;69692;55.820;37.490;2023-08-06T00:42:15;100040.59;;;21.97;74.59
80382;BME280;69692;55.820;37.490;2023-08-06T00:44:46;100043.31;;;21.97;73.50
80382;BME280;69692;55.820;37.490;2023-08-06T00:47:12;100039.25;;;21.95;74.02
80382;BME280;69692;55.820;37.490;2023-08-06T00:49:38;100041.19;;;21.94;74.51
80382;BME280;69692;55.820;37.490;2023-08-06T00:52:06;100037.63;;;21.94;74.73
80382;BME280;69692;55.820;37.490;2023-08-06T00:54:36;100035.19;;;21.92;75.04
80382;BME280;69692;55.820;37.490;2023-08-06T00:57:04;100039.84;;;21.92;75.14
80382;BME280;69692;55.820;37.490;2023-08-06T00:59:32;100032.75;;;21.91;75.22
80382;BME280;69692;55.820;37.490;2023-08-06T01:01:58;100036.91;;;21.88;75.27
80382;BME280;69692;55.820;37.490;2023-08-06T01:04:24;100045.94;;;21.89;75.55
80382;BME280;69692;55.820;37.490;2023-08-06T01:07:02;100048.13;;;21.87;75.41
80382;BME280;69692;55.820;37.490;2023-08-06T01:09:54;100049.84;;;21.83;75.29
80382;BME280;69692;55.820;37.490;2023-08-06T01:12:45;100046.56;;;21.81;74.41
80382;BME280;69692;55.820;37.490;2023-08-06T01:15:23;100047.69;;;21.80;74.79
80382;BME280;69692;55.820;37.490;2023-08-06T01:17:50;100040.88;;;21.77;75.21
80382;BME280;69692;55.820;37.490;2023-08-06T01:20:16;100038.19;;;21.72;75.49
80382;BME280;69692;55.820;37.490;2023-08-06T01:22:42;100037.94;;;21.73;75.81
80382;BME280;69692;55.820;37.490;2023-08-06T01:25:08;100046.41;;;21.72;75.59
80382;BME280;69692;55.820;37.490;2023-08-06T01:27:42;100048.88;;;21.73;75.46
80382;BME280;69692;55.820;37.490;2023-08-06T01:30:13;100044.78;;;21.71;75.45
80382;BME280;69692;55.820;37.490;2023-08-06T01:32:44;100041.78;;;21.72;75.42
80382;BME280;69692;55.820;37.490;2023-08-06T01:35:14;100043.91;;;21.76;75.93
80382;BME280;69692;55.820;37.490;2023-08-06T01:37:41;100049.69;;;21.74;75.84
80382;BME280;69692;55.820;37.490;2023-08-06T01:40:13;100046.94;;;21.74;75.82
80382;BME280;69692;55.820;37.490;2023-08-06T01:42:39;100052.47;;;21.69;75.32
80382;BME280;69692;55.820;37.490;2023-08-06T01:45:06;100056.34;;;21.68;75.51
80382;BME280;69692;55.820;37.490;2023-08-06T01:47:32;100053.06;;;21.66;75.65
80382;BME280;69692;55.820;37.490;2023-08-06T01:49:58;100057.75;;;21.65;76.46
80382;BME280;69692;55.820;37.490;2023-08-06T01:52:24;100047.59;;;21.66;76.68
80382;BME280;69692;55.820;37.490;2023-08-06T01:54:50;100051.66;;;21.68;76.72
80382;BME280;69692;55.820;37.490;2023-08-06T01:57:16;100059.88;;;21.68;75.88
80382;BME280;69692;55.820;37.490;2023-08-06T01:59:41;100054.91;;;21.70;75.76
80382;BME280;69692;55.820;37.490;2023-08-06T02:02:07;100061.28;;;21.66;75.84
80382;BME280;69692;55.820;37.490;2023-08-06T02:04:33;100057.97;;;21.69;76.07
80382;BME280;69692;55.820;37.490;2023-08-06T02:06:59;100070.53;;;21.70;74.09
80382;BME280;69692;55.820;37.490;2023-08-06T02:09:25;100071.94;;;21.67;75.03
80382;BME280;69692;55.820;37.490;2023-08-06T02:11:51;100075.81;;;21.66;74.62
80382;BME280;69692;55.820;37.490;2023-08-06T02:14:17;100069.28;;;21.62;75.24
80382;BME280;69692;55.820;37.490;2023-08-06T02:16:43;100063.72;;;21.67;75.90
80382;BME280;69692;55.820;37.490;2023-08-06T02:19:09;100069.72;;;21.69;76.25
80382;BME280;69692;55.820;37.490;2023-08-06T02:21:35;100069.16;;;21.72;76.53
80382;BME280;69692;55.820;37.490;2023-08-06T02:24:01;100073.53;;;21.73;76.18
80382;BME280;69692;55.820;37.490;2023-08-06T02:26:26;100077.59;;;21.76;76.35
80382;BME280;69692;55.820;37.490;2023-08-06T02:28:55;100083.00;;;21.81;74.64
80382;BME280;69692;55.820;37.490;2023-08-06T02:31:21;100074.28;;;21.79;74.73
80382;BME280;69692;55.820;37.490;2023-08-06T02:33:47;100064.13;;;21.80;74.51
80382;BME280;69692;55.820;37.490;2023-08-06T02:36:12;100075.53;;;21.87;75.29
80382;BME280;69692;55.820;37.490;2023-08-06T02:38:38;100076.06;;;21.89;74.72
80382;BME280;69692;55.820;37.490;2023-08-06T02:41:04;100075.53;;;21.87;73.87
80382;BME280;69692;55.820;37.490;2023-08-06T02:43:30;100083.47;;;21.88;74.62
80382;BME280;69692;55.820;37.490;2023-08-06T02:45:57;100078.50;;;21.90;75.04
80382;BME280;69692;55.820;37.490;2023-08-06T02:48:23;100071.91;;;21.91;75.17
80382;BME280;69692;55.820;37.490;2023-08-06T02:50:49;100075.47;;;21.92;75.79
80382;BME280;69692;55.820;37.490;2023-08-06T02:53:15;100074.06;;;21.94;74.83
80382;BME280;69692;55.820;37.490;2023-08-06T02:55:47;100067.69;;;21.99;74.71
80382;BME280;69692;55.820;37.490;2023-08-06T02:58:15;100069.56;;;22.03;73.30
80382;BME280;69692;55.820;37.490;2023-08-06T03:01:05;100067.88;;;22.08;73.18
80382;BME280;69692;55.820;37.490;2023-08-06T03:03:38;100071.28;;;22.18;73.83
80382;BME280;69692;55.820;37.490;2023-08-06T03:06:06;100073.72;;;22.20;73.26
80382;BME280;69692;55.820;37.490;2023-08-06T03:08:44;100073.72;;;22.20;73.25
80382;BME280;69692;55.820;37.490;2023-08-06T03:11:11;100075.06;;;22.22;73.49
80382;BME280;69692;55.820;37.490;2023-08-06T03:13:37;100073.03;;;22.28;73.68
80382;BME280;69692;55.820;37.490;2023-08-06T03:16:03;100069.44;;;22.33;73.19
80382;BME280;69692;55.820;37.490;2023-08-06T03:18:30;100068.22;;;22.39;73.30
80382;BME280;69692;55.820;37.490;2023-08-06T03:20:58;100066.50;;;22.43;73.09
80382;BME280;69692;55.820;37.490;2023-08-06T03:23:28;100063.72;;;22.48;72.94
80382;BME280;69692;55.820;37.490;2023-08-06T03:25:54;100069.91;;;22.53;72.74
80382;BME280;69692;55.820;37.490;2023-08-06T03:28:20;100076.41;;;22.57;73.04
80382;BME280;69692;55.820;37.490;2023-08-06T03:30:46;100071.69;;;22.63;73.00
80382;BME280;69692;55.820;37.490;2023-08-06T03:33:12;100073.00;;;22.66;72.36
80382;BME280;69692;55.820;37.490;2023-08-06T03:35:39;100075.34;;;22.72;72.26
80382;BME280;69692;55.820;37.490;2023-08-06T03:38:05;100072.53;;;22.77;72.42
80382;BME280;69692;55.820;37.490;2023-08-06T03:40:35;100072.16;;;22.84;72.21
80382;BME280;69692;55.820;37.490;2023-08-06T03:43:00;100074.81;;;22.89;72.15
80382;BME280;69692;55.820;37.490;2023-08-06T03:45:26;100068.13;;;22.95;72.06
80382;BME280;69692;55.820;37.490;2023-08-06T03:47:52;100064.97;;;23.02;72.28
80382;BME280;69692;55.820;37.490;2023-08-06T03:50:18;100068.16;;;23.09;70.05
80382;BME280;69692;55.820;37.490;2023-08-06T03:52:44;100067.94;;;23.19;70.92
80382;BME280;69692;55.820;37.490;2023-08-06T03:55:10;100062.38;;;23.24;70.33
80382;BME280;69692;55.820;37.490;2023-08-06T03:57:36;100064.38;;;23.32;69.84
80382;BME280;69692;55.820;37.490;2023-08-06T04:00:03;100057.47;;;23.35;69.68
80382;BME280;69692;55.820;37.490;2023-08-06T04:02:41;100057.78;;;23.47;69.17
80382;BME280;69692;55.820;37.490;2023-08-06T04:05:08;100059.81;;;23.55;69.05
80382;BME280;69692;55.820;37.490;2023-08-06T04:07:34;100058.63;;;23.61;67.19
80382;BME280;69692;55.820;37.490;2023-08-06T04:10:02;100053.41;;;23.73;67.46
80382;BME280;69692;55.820;37.490;2023-08-06T04:12:31;100061.13;;;23.85;66.26
80382;BME280;69692;55.820;37.490;2023-08-06T04:14:59;100052.03;;;23.98;65.71
80382;BME280;69692;55.820;37.490;2023-08-06T04:17:25;100052.81;;;24.13;65.15
80382;BME280;69692;55.820;37.490;2023-08-06T04:19:53;100056.13;;;24.23;64.28
80382;BME280;69692;55.820;37.490;2023-08-06T04:22:20;100050.41;;;24.33;64.85
80382;BME280;69692;55.820;37.490;2023-08-06T04:24:46;100058.22;;;24.40;65.18
80382;BME280;69692;55.820;37.490;2023-08-06T04:27:13;100056.00;;;24.42;65.46
80382;BME280;69692;55.820;37.490;2023-08-06T04:29:40;100062.50;;;24.46;65.61
80382;BME280;69692;55.820;37.490;2023-08-06T04:32:08;100065.91;;;24.52;65.55
80382;BME280;69692;55.820;37.490;2023-08-06T04:34:35;100058.97;;;24.54;65.28
80382;BME280;69692;55.820;37.490;2023-08-06T04:37:02;100059.03;;;24.63;63.31
80382;BME280;69692;55.820;37.490;2023-08-06T04:39:28;100064.09;;;24.69;64.37
80382;BME280;69692;55.820;37.490;2023-08-06T04:41:58;100058.97;;;24.77;61.70
80382;BME280;69692;55.820;37.490;2023-08-06T04:44:24;100052.72;;;24.85;63.14
80382;BME280;69692;55.820;37.490;2023-08-06T04:46:50;100057.59;;;24.88;63.75
80382;BME280;69692;55.820;37.490;2023-08-06T04:49:16;100058.56;;;24.92;63.50
80382;BME280;69692;55.820;37.490;2023-08-06T04:51:41;100058.75;;;24.95;63.64
80382;BME280;69692;55.820;37.490;2023-08-06T04:54:07;100058.50;;;25.06;61.80
80382;BME280;69692;55.820;37.490;2023-08-06T04:56:33;100057.09;;;25.17;63.08
80382;BME280;69692;55.820;37.490;2023-08-06T04:58:59;100051.44;;;25.22;62.08
80382;BME280;69692;55.820;37.490;2023-08-06T05:01:25;100059.94;;;25.34;62.03
80382;BME280;69692;55.820;37.490;2023-08-06T05:03:51;100060.75;;;25.43;60.39
80382;BME280;69692;55.820;37.490;2023-08-06T05:06:17;100059.66;;;25.53;59.77
80382;BME280;69692;55.820;37.490;2023-08-06T05:08:43;100058.22;;;25.64;58.92
80382;BME280;69692;55.820;37.490;2023-08-06T05:11:09;100058.47;;;25.76;59.22
80382;BME280;69692;55.820;37.490;2023-08-06T05:13:35;100058.28;;;25.81;59.24
80382;BME280;69692;55.820;37.490;2023-08-06T05:16:01;100050.19;;;25.85;59.75
80382;BME280;69692;55.820;37.490;2023-08-06T05:18:27;100051.19;;;25.89;58.91
80382;BME280;69692;55.820;37.490;2023-08-06T05:20:52;100053.44;;;25.96;59.15
80382;BME280;69692;55.820;37.490;2023-08-06T05:23:18;100046.63;;;26.02;56.99
80382;BME280;69692;55.820;37.490;2023-08-06T05:25:44;100046.97;;;26.09;57.37
80382;BME280;69692;55.820;37.490;2023-08-06T05:28:10;100039.81;;;26.16;59.23
80382;BME280;69692;55.820;37.490;2023-08-06T05:30:39;100040.31;;;26.27;58.16
80382;BME280;69692;55.820;37.490;2023-08-06T05:33:05;100039.84;;;26.34;58.24
80382;BME280;69692;55.820;37.490;2023-08-06T05:35:31;100038.84;;;26.47;56.97
80382;BME280;69692;55.820;37.490;2023-08-06T05:37:57;100037.09;;;26.51;56.60
80382;BME280;69692;55.820;37.490;2023-08-06T05:40:23;100036.25;;;26.59;56.25
80382;BME280;69692;55.820;37.490;2023-08-06T05:42:54;100030.88;;;26.63;57.06
80382;BME280;69692;55.820;37.490;2023-08-06T05:45:21;100037.72;;;26.65;57.48
80382;BME280;69692;55.820;37.490;2023-08-06T05:47:49;100042.84;;;26.75;56.50
80382;BME280;69692;55.820;37.490;2023-08-06T05:50:15;100040.75;;;26.81;55.62
80382;BME280;69692;55.820;37.490;2023-08-06T05:52:41;100033.91;;;26.87;55.66
80382;BME280;69692;55.820;37.490;2023-08-06T05:55:07;100034.19;;;27.03;54.57
80382;BME280;69692;55.820;37.490;2023-08-06T05:57:33;100034.03;;;27.08;55.23
80382;BME280;69692;55.820;37.490;2023-08-06T05:59:59;100027.16;;;27.14;54.53
80382;BME280;69692;55.820;37.490;2023-08-06T06:02:26;100032.84;;;27.18;54.73
80382;BME280;69692;55.820;37.490;2023-08-06T06:04:52;100029.88;;;27.23;54.41
80382;BME280;69692;55.820;37.490;2023-08-06T06:07:18;100029.38;;;27.29;53.23
80382;BME280;69692;55.820;37.490;2023-08-06T06:09:44;100027.22;;;27.35;54.21
80382;BME280;69692;55.820;37.490;2023-08-06T06:12:10;100026.38;;;27.43;53.37
80382;BME280;69692;55.820;37.490;2023-08-06T06:14:35;100034.13;;;27.50;53.07
80382;BME280;69692;55.820;37.490;2023-08-06T06:17:01;100031.53;;;27.53;54.64
80382;BME280;69692;55.820;37.490;2023-08-06T06:19:27;100022.69;;;27.60;53.05
80382;BME280;69692;55.820;37.490;2023-08-06T06:21:53;100024.94;;;27.67;53.22
80382;BME280;69692;55.820;37.490;2023-08-06T06:24:19;100028.00;;;27.74;52.57
80382;BME280;69692;55.820;37.490;2023-08-06T06:26:45;100015.59;;;27.80;51.15
80382;BME280;69692;55.820;37.490;2023-08-06T06:29:11;100025.31;;;27.86;51.07
80382;BME280;69692;55.820;37.490;2023-08-06T06:31:37;100019.59;;;27.91;50.25
80382;BME280;69692;55.820;37.490;2023-08-06T06:34:02;100017.97;;;27.90;51.29
80382;BME280;69692;55.820;37.490;2023-08-06T06:36:28;100022.63;;;27.98;51.06
80382;BME280;69692;55.820;37.490;2023-08-06T06:38:54;100011.34;;;28.03;50.32
80382;BME280;69692;55.820;37.490;2023-08-06T06:41:20;100021.22;;;28.13;50.32
80382;BME280;69692;55.820;37.490;2023-08-06T06:43:46;100011.31;;;28.24;49.68
80382;BME280;69692;55.820;37.490;2023-08-06T06:46:12;100012.44;;;28.32;51.20
80382;BME280;69692;55.820;37.490;2023-08-06T06:48:38;100022.59;;;28.40;49.87
80382;BME280;69692;55.820;37.490;2023-08-06T06:51:03;100017.34;;;28.47;50.13
80382;BME280;69692;55.820;37.490;2023-08-06T06:53:29;100008.69;;;28.48;49.11
80382;BME280;69692;55.820;37.490;2023-08-06T06:56:01;100003.72;;;28.54;50.85
80382;BME280;69692;55.820;37.490;2023-08-06T06:58:27;100002.50;;;28.64;48.94
80382;BME280;69692;55.820;37.490;2023-08-06T07:00:52;100010.09;;;28.67;48.65
80382;BME280;69692;55.820;37.490;2023-08-06T07:03:20;100012.00;;;28.75;48.71
80382;BME280;69692;55.820;37.490;2023-08-06T07:05:46;100011.25;;;28.87;48.48
80382;BME280;69692;55.820;37.490;2023-08-06T07:08:12;100007.88;;;28.93;47.60
80382;BME280;69692;55.820;37.490;2023-08-06T07:10:38;100006.50;;;28.99;47.62
80382;BME280;69692;55.820;37.490;2023-08-06T07:13:04;100001.19;;;29.06;48.23
80382;BME280;69692;55.820;37.490;2023-08-06T07:15:29;99998.19;;;29.12;46.33
80382;BME280;69692;55.820;37.490;2023-08-06T07:17:55;100003.84;;;29.15;46.83
80382;BME280;69692;55.820;37.490;2023-08-06T07:20:21;100002.47;;;29.21;46.67
80382;BME280;69692;55.820;37.490;2023-08-06T07:22:47;100008.13;;;29.25;47.12
80382;BME280;69692;55.820;37.490;2023-08-06T07:25:12;99995.63;;;29.31;46.30
80382;BME280;69692;55.820;37.490;2023-08-06T07:27:38;100000.72;;;29.41;46.63
80382;BME280;69692;55.820;37.490;2023-08-06T07:30:05;99991.72;;;29.44;46.14
80382;BME280;69692;55.820;37.490;2023-08-06T07:32:31;99994.75;;;29.51;46.04
80382;BME280;69692;55.820;37.490;2023-08-06T07:34:57;99996.81;;;29.66;45.56
80382;BME280;69692;55.820;37.490;2023-08-06T07:37:29;99988.59;;;29.70;44.89
80382;BME280;69692;55.820;37.490;2023-08-06T07:39:56;99997.56;;;29.91;45.48
80382;BME280;69692;55.820;37.490;2023-08-06T07:42:22;99994.88;;;30.07;44.66
80382;BME280;69692;55.820;37.490;2023-08-06T07:44:56;99996.19;;;30.25;45.68
80382;BME280;69692;55.820;37.490;2023-08-06T07:47:22;99989.50;;;30.42;45.05
80382;BME280;69692;55.820;37.490;2023-08-06T07:49:48;99990.97;;;30.52;44.26
80382;BME280;69692;55.820;37.490;2023-08-06T07:52:14;99990.22;;;30.67;43.24
80382;BME280;69692;55.820;37.490;2023-08-06T07:54:40;100022.31;;;30.96;43.01
80382;BME280;69692;55.820;37.490;2023-08-06T07:57:07;100029.63;;;30.45;42.72
80382;BME280;69692;55.820;37.490;2023-08-06T07:59:33;100018.38;;;30.53;45.43
80382;BME280;69692;55.820;37.490;2023-08-06T08:02:00;100015.59;;;30.53;43.33
80382;BME280;69692;55.820;37.490;2023-08-06T08:04:26;100014.50;;;30.42;43.64
80382;BME280;69692;55.820;37.490;2023-08-06T08:06:51;100008.00;;;30.22;43.33
80382;BME280;69692;55.820;37.490;2023-08-06T08:09:17;100007.47;;;30.33;44.04
80382;BME280;69692;55.820;37.490;2023-08-06T08:11:43;100001.13;;;30.32;43.94
80382;BME280;69692;55.820;37.490;2023-08-06T08:14:09;100000.25;;;30.16;43.92
80382;BME280;69692;55.820;37.490;2023-08-06T08:16:35;100007.13;;;30.34;43.73
80382;BME280;69692;55.820;37.490;2023-08-06T08:19:01;99998.47;;;30.36;43.70
80382;BME280;69692;55.820;37.490;2023-08-06T08:21:28;100003.38;;;30.42;43.64
80382;BME280;69692;55.820;37.490;2023-08-06T08:23:54;100004.84;;;30.52;43.30
80382;BME280;69692;55.820;37.490;2023-08-06T08:26:20;100003.88;;;30.60;43.38
80382;BME280;69692;55.820;37.490;2023-08-06T08:28:46;99998.28;;;30.72;44.22
80382;BME280;69692;55.820;37.490;2023-08-06T08:31:11;99997.09;;;30.73;43.20
80382;BME280;69692;55.820;37.490;2023-08-06T08:33:38;99997.53;;;30.75;43.59
80382;BME280;69692;55.820;37.490;2023-08-06T08:36:04;99988.84;;;30.77;43.44
80382;BME280;69692;55.820;37.490;2023-08-06T08:38:30;100000.78;;;30.77;43.22
80382;BME280;69692;55.820;37.490;2023-08-06T08:40:58;99987.31;;;30.79;43.41
80382;BME280;69692;55.820;37.490;2023-08-06T08:43:24;99991.28;;;31.10;43.32
80382;BME280;69692;55.820;37.490;2023-08-06T08:45:51;100005.53;;;30.93;43.01
80382;BME280;69692;55.820;37.490;2023-08-06T08:48:18;99999.34;;;30.83;44.53
80382;BME280;69692;55.820;37.490;2023-08-06T08:50:48;99992.56;;;30.97;45.64
80382;BME280;69692;55.820;37.490;2023-08-06T08:53:15;99993.72;;;30.96;45.01
80382;BME280;69692;55.820;37.490;2023-08-06T08:55:43;99984.91;;;31.09;44.25
80382;BME280;69692;55.820;37.490;2023-08-06T08:58:10;99989.47;;;31.17;44.46
80382;BME280;69692;55.820;37.490;2023-08-06T09:00:36;99991.91;;;31.35;44.21
80382;BME280;69692;55.820;37.490;2023-08-06T09:03:06;99977.00;;;31.78;43.05
80382;BME280;69692;55.820;37.490;2023-08-06T09:05:32;99976.94;;;31.94;42.01
80382;BME280;69692;55.820;37.490;2023-08-06T09:08:03;99970.28;;;32.37;42.76
80382;BME280;69692;55.820;37.490;2023-08-06T09:10:30;99969.81;;;32.77;40.68
80382;BME280;69692;55.820;37.490;2023-08-06T09:12:57;99971.19;;;32.87;39.56
80382;BME280;69692;55.820;37.490;2023-08-06T09:15:27;99970.91;;;32.73;41.35
80382;BME280;69692;55.820;37.490;2023-08-06T09:17:53;99972.06;;;33.40;41.45
80382;BME280;69692;55.820;37.490;2023-08-06T09:20:20;99967.44;;;33.82;38.97
80382;BME280;69692;55.820;37.490;2023-08-06T09:22:46;99978.47;;;33.71;39.29
80382;BME280;69692;55.820;37.490;2023-08-06T09:25:22;99976.41;;;35.61;35.52
80382;BME280;69692;55.820;37.490;2023-08-06T09:27:51;99957.22;;;36.92;33.22
80382;BME280;69692;55.820;37.490;2023-08-06T09:30:31;99963.81;;;38.71;30.65
80382;BME280;69692;55.820;37.490;2023-08-06T09:32:57;99969.41;;;39.64;29.72
80382;BME280;69692;55.820;37.490;2023-08-06T09:35:24;99966.00;;;37.30;31.91
80382;BME280;69692;55.820;37.490;2023-08-06T09:37:50;99965.13;;;34.95;35.44
80382;BME280;69692;55.820;37.490;2023-08-06T09:40:30;99955.16;;;35.52;36.01
80382;BME280;69692;55.820;37.490;2023-08-06T09:42:57;99958.63;;;38.70;30.78
80382;BME280;69692;55.820;37.490;2023-08-06T09:45:28;99953.06;;;39.83;29.22
80382;BME280;69692;55.820;37.490;2023-08-06T09:47:56;99946.69;;;40.40;27.98
80382;BME280;69692;55.820;37.490;2023-08-06T09:50:22;99948.41;;;39.69;29.10
80382;BME280;69692;55.820;37.490;2023-08-06T09:52:50;99942.53;;;39.87;28.76
80382;BME280;69692;55.820;37.490;2023-08-06T09:55:18;99939.72;;;38.70;29.44
80382;BME280;69692;55.820;37.490;2023-08-06T09:57:46;99937.94;;;36.66;32.65
80382;BME280;69692;55.820;37.490;2023-08-06T10:00:12;99933.03;;;37.66;31.63
80382;BME280;69692;55.820;37.490;2023-08-06T10:02:40;99923.50;;;37.03;32.41
80382;BME280;69692;55.820;37.490;2023-08-06T10:05:08;99921.59;;;38.12;31.07
80382;BME280;69692;55.820;37.490;2023-08-06T10:07:34;99921.56;;;38.19;30.71
80382;BME280;69692;55.820;37.490;2023-08-06T10:10:02;99909.56;;;40.14;28.36
80382;BME280;69692;55.820;37.490;2023-08-06T10:12:34;99912.56;;;41.48;26.32
80382;BME280;69692;55.820;37.490;2023-08-06T10:15:05;99910.50;;;42.08;25.20
80382;BME280;69692;55.820;37.490;2023-08-06T10:17:33;99909.31;;;42.25;25.05
80382;BME280;69692;55.820;37.490;2023-08-06T10:20:00;99902.63;;;43.58;23.91
80382;BME280;69692;55.820;37.490;2023-08-06T10:22:26;99907.47;;;43.87;23.47
80382;BME280;69692;55.820;37.490;2023-08-06T10:24:55;99896.38;;;44.56;22.50
80382;BME280;69692;55.820;37.490;2023-08-06T10:27:40;99889.81;;;43.25;24.13
80382;BME280;69692;55.820;37.490;2023-08-06T10:30:29;99897.63;;;39.76;28.65
80382;BME280;69692;55.820;37.490;2023-08-06T10:33:00;99891.47;;;42.28;25.12
80382;BME280;69692;55.820;37.490;2023-08-06T10:38:08;99888.66;;;40.39;26.89
80382;BME280;69692;55.820;37.490;2023-08-06T10:40:41;99888.00;;;41.64;25.98
80382;BME280;69692;55.820;37.490;2023-08-06T10:43:08;99884.66;;;44.67;22.94
80382;BME280;69692;55.820;37.490;2023-08-06T10:45:50;99879.66;;;45.93;21.08
80382;BME280;69692;55.820;37.490;2023-08-06T10:48:29;99883.59;;;42.68;24.43
80382;BME280;69692;55.820;37.490;2023-08-06T10:50:56;99879.09;;;42.38;25.73
80382;BME280;69692;55.820;37.490;2023-08-06T10:53:22;99881.41;;;40.88;27.78
80382;BME280;69692;55.820;37.490;2023-08-06T10:55:48;99871.78;;;44.75;23.04
80382;BME280;69692;55.820;37.490;2023-08-06T10:58:15;99873.97;;;46.33;20.66
80382;BME280;69692;55.820;37.490;2023-08-06T11:00:42;99870.97;;;45.43;21.35
80382;BME280;69692;55.820;37.490;2023-08-06T11:03:08;99872.63;;;45.75;20.47
80382;BME280;69692;55.820;37.490;2023-08-06T11:05:35;99887.75;;;41.95;24.17
80382;BME280;69692;55.820;37.490;2023-08-06T11:08:01;99889.84;;;38.74;29.60
80382;BME280;69692;55.820;37.490;2023-08-06T11:10:28;99870.44;;;40.94;25.90
80382;BME280;69692;55.820;37.490;2023-08-06T11:12:54;99874.75;;;37.88;30.65
80382;BME280;69692;55.820;37.490;2023-08-06T11:15:20;99882.34;;;39.40;28.75
80382;BME280;69692;55.820;37.490;2023-08-06T11:17:46;99878.00;;;41.60;25.52
80382;BME280;69692;55.820;37.490;2023-08-06T11:20:13;99868.63;;;44.73;21.89
80382;BME280;69692;55.820;37.490;2023-08-06T11:22:39;99868.97;;;44.75;21.52
80382;BME280;69692;55.820;37.490;2023-08-06T11:25:06;99863.34;;;45.62;20.43
80382;BME280;69692;55.820;37.490;2023-08-06T11:27:32;99854.56;;;46.00;20.29
80382;BME280;69692;55.820;37.490;2023-08-06T11:29:58;99858.94;;;47.18;18.85
80382;BME280;69692;55.820;37.490;2023-08-06T11:32:24;99854.16;;;47.34;18.92
80382;BME280;69692;55.820;37.490;2023-08-06T11:34:50;99855.47;;;42.94;23.84
80382;BME280;69692;55.820;37.490;2023-08-06T11:37:16;99858.19;;;40.30;26.00
80382;BME280;69692;55.820;37.490;2023-08-06T11:39:46;99843.13;;;40.40;26.45
80382;BME280;69692;55.820;37.490;2023-08-06T11:42:13;99858.41;;;41.53;26.19
80382;BME280;69692;55.820;37.490;2023-08-06T11:44:40;99855.69;;;43.28;23.02
80382;BME280;69692;55.820;37.490;2023-08-06T11:47:16;99858.09;;;43.71;23.11
80382;BME280;69692;55.820;37.490;2023-08-06T11:49:47;99849.09;;;39.92;27.51
80382;BME280;69692;55.820;37.490;2023-08-06T11:52:16;99850.34;;;40.18;26.34
80382;BME280;69692;55.820;37.490;2023-08-06T11:54:45;99851.72;;;40.80;26.55
80382;BME280;69692;55.820;37.490;2023-08-06T11:57:11;99841.78;;;42.11;24.76
80382;BME280;69692;55.820;37.490;2023-08-06T11:59:38;99841.84;;;39.91;26.94
80382;BME280;69692;55.820;37.490;2023-08-06T12:02:08;99841.38;;;38.53;29.23
80382;BME280;69692;55.820;37.490;2023-08-06T12:05:11;99851.41;;;35.17;34.82
80382;BME280;69692;55.820;37.490;2023-08-06T12:07:58;99847.78;;;34.58;36.03
80382;BME280;69692;55.820;37.490;2023-08-06T12:10:26;99840.88;;;34.41;35.89
80382;BME280;69692;55.820;37.490;2023-08-06T12:12:53;99833.63;;;35.61;33.48
80382;BME280;69692;55.820;37.490;2023-08-06T12:15:19;99834.03;;;33.94;36.47
80382;BME280;69692;55.820;37.490;2023-08-06T12:17:45;99836.81;;;33.94;36.85
80382;BME280;69692;55.820;37.490;2023-08-06T12:20:11;99836.44;;;33.99;37.26
80382;BME280;69692;55.820;37.490;2023-08-06T12:22:38;99832.84;;;33.99;36.80
80382;BME280;69692;55.820;37.490;2023-08-06T12:25:07;99829.00;;;33.43;38.12
80382;BME280;69692;55.820;37.490;2023-08-06T12:27:37;99828.75;;;33.56;38.13
80382;BME280;69692;55.820;37.490;2023-08-06T12:30:05;99833.25;;;33.04;38.27
80382;BME280;69692;55.820;37.490;2023-08-06T12:32:35;99826.56;;;32.82;38.66
80382;BME280;69692;55.820;37.490;2023-08-06T12:35:01;99817.78;;;33.36;38.42
80382;BME280;69692;55.820;37.490;2023-08-06T12:37:31;99825.22;;;34.36;36.53
80382;BME280;69692;55.820;37.490;2023-08-06T12:39:57;99823.91;;;33.19;37.93
80382;BME280;69692;55.820;37.490;2023-08-06T12:42:23;99826.66;;;32.62;38.96
80382;BME280;69692;55.820;37.490;2023-08-06T12:44:50;99827.91;;;32.42;39.72
80382;BME280;69692;55.820;37.490;2023-08-06T12:47:17;99819.53;;;32.65;39.44